Archival Weather

Heathrow

London, United Kingdom (EGLL)

Report from: Wednesday, December 6, 2023 12:20 AM GMT
Current time: Saturday, March 2, 2024 10:58 AM GMT

Current weather – Weather history – Daily summaries
Weather forecast

Temperature5.0°C (41.0°F)
Wind chill3.9°C (39.0°F)
Dew point3.0°C (37.4°F)
Winds 3 kts (1.5 m/s, 3.5 mph) North (360°)
Visibility6.2 mi. (10 km)
Clouds Ceiling: Overcast 1,100 ft. (335 m)
Altimeter30.00 in.Hg (1016 mB)
Relative humidity87 %
Density altitude-1,190 ft. (-363 m)
Remarks Fully automated report
Flight conditions Marginal Visual Meteorological Conditions
Raw dataEGLL 060020Z AUTO 36003KT 9999 OVC011 05/03 Q1016
An error has occurred. This application may no longer respond until reloaded. Reload 🗙